Terminal Aerodrome Forecast
Issued by NWS

Home | Current Version | Previous Version | Text Only | Print | Product List | Glossary On
Versions: 1 2 3 4 5 6 7 8 9 10 11 12 13 14 15 16 17
000
FTUS41 KBTV 251130
TAFMPV
TAF
KMPV 251130Z 2512/2612 00000KT P6SM SCT200
     FM251500 17005KT P6SM BKN150
     FM252100 21006KT P6SM VCSH BKN050
      TEMPO 2521/2601 3SM TSRA BR BKN030CB
     FM260400 22005KT P6SM BKN030=

USA.gov is the U.S. government's official web portal to all federal, state and local government web resources and services.